Time;durP1;ratioP1;P1;durP2;ratioP2;P2;SDS_P1;SDS_P2;PMS_P1;PMS_P2;Temp;Humidity;BMP_temperature;BMP_pressure;BME280_temperature;BME280_humidity;BME280_pressure;Samples;Min_cycle;Max_cycle;Signal;HPM_P1;HPM_P2
2022/02/26 00:02:22;;;;;;;10.43;5.15;;;3.80;67.60;;;;;;5039623;28;20011;-75
2022/02/26 00:04:48;;;;;;;11.85;6.38;;;3.70;67.50;;;;;;5038124;28;20072;-74
2022/02/26 00:07:14;;;;;;;13.23;5.45;;;3.70;67.70;;;;;;5055108;28;20033;-74
2022/02/26 00:09:40;;;;;;;11.32;6.10;;;3.70;67.80;;;;;;5035417;28;20032;-74
2022/02/26 00:12:07;;;;;;;15.60;7.28;;;3.80;67.60;;;;;;5053899;28;20075;-76
2022/02/26 00:14:33;;;;;;;19.20;9.10;;;3.80;67.30;;;;;;5068080;28;20436;-76
2022/02/26 00:16:59;;;;;;;18.13;10.75;;;3.80;67.30;;;;;;5069869;28;20045;-74
2022/02/26 00:19:25;;;;;;;18.58;10.82;;;3.90;67.30;;;;;;5068962;28;20127;-76
2022/02/26 00:21:52;;;;;;;18.63;10.60;;;3.90;67.30;;;;;;5051476;28;20072;-76
2022/02/26 00:24:18;;;;;;;17.35;10.05;;;3.90;67.00;;;;;;5054194;28;20056;-76
2022/02/26 00:26:44;;;;;;;15.95;8.48;;;3.90;67.10;;;;;;5054333;28;20701;-76
2022/02/26 00:29:10;;;;;;;11.13;6.00;;;4.00;67.00;;;;;;5060770;28;20032;-76
2022/02/26 00:31:36;;;;;;;11.50;6.32;;;3.90;67.10;;;;;;5054396;28;20037;-74
2022/02/26 00:34:02;;;;;;;12.35;6.93;;;4.00;66.90;;;;;;5050501;28;20100;-76
2022/02/26 00:36:28;;;;;;;17.90;9.40;;;4.00;66.80;;;;;;5051158;28;20051;-74
2022/02/26 00:38:55;;;;;;;18.77;9.90;;;4.00;66.80;;;;;;5052671;28;20037;-75
2022/02/26 00:41:21;;;;;;;18.55;9.85;;;4.00;66.80;;;;;;5053543;28;20037;-74
2022/02/26 00:43:47;;;;;;;14.40;8.25;;;4.00;66.90;;;;;;5054607;28;20029;-76
2022/02/26 00:46:13;;;;;;;14.73;7.30;;;4.00;67.00;;;;;;5061245;28;20405;-75
2022/02/26 00:51:24;;;;;;;14.93;7.75;;;4.00;66.90;;;;;;5051283;28;20517;-74
2022/02/26 00:53:50;;;;;;;13.10;6.90;;;4.00;66.80;;;;;;5051775;28;20194;-74
2022/02/26 00:56:16;;;;;;;15.65;7.97;;;4.00;66.60;;;;;;5041319;28;20453;-76
2022/02/26 00:58:42;;;;;;;14.00;7.47;;;4.10;66.50;;;;;;5064603;28;20144;-76
2022/02/26 01:01:08;;;;;;;13.75;7.13;;;4.10;66.50;;;;;;5053557;28;20037;-76
2022/02/26 01:03:35;;;;;;;14.15;7.35;;;4.10;67.20;;;;;;5052470;28;20037;-74
2022/02/26 01:06:01;;;;;;;;;;;4.10;66.10;;;;;;5053713;28;20090;-76
2022/02/26 01:08:27;;;;;;;14.10;7.85;;;4.10;66.00;;;;;;5035562;28;19924;-76
2022/02/26 01:10:53;;;;;;;15.13;7.80;;;4.10;66.00;;;;;;5052016;28;20037;-74
2022/02/26 01:13:19;;;;;;;12.07;5.65;;;4.10;66.00;;;;;;5060972;28;20036;-74
2022/02/26 01:15:45;;;;;;;11.23;6.15;;;4.10;66.20;;;;;;5051692;28;20444;-75
2022/02/26 01:18:11;;;;;;;11.15;6.43;;;4.10;66.20;;;;;;5051069;28;20375;-74
2022/02/26 01:20:37;;;;;;;12.93;7.20;;;4.10;66.00;;;;;;5051580;28;20037;-75
2022/02/26 01:23:04;;;;;;;11.18;6.00;;;4.10;66.00;;;;;;5051380;28;20128;-76
2022/02/26 01:25:30;;;;;;;;;;;4.20;66.00;;;;;;5053372;28;20020;-74
2022/02/26 01:27:56;;;;;;;10.30;6.10;;;4.10;65.80;;;;;;5054783;28;19974;-74
2022/02/26 01:30:22;;;;;;;13.38;7.57;;;4.10;66.00;;;;;;5051445;28;20076;-76
2022/02/26 01:32:49;;;;;;;14.02;7.32;;;4.10;66.10;;;;;;5046864;28;20043;-76
2022/02/26 01:35:15;;;;;;;13.30;6.38;;;4.00;66.20;;;;;;5059438;28;20205;-74
2022/02/26 01:37:41;;;;;;;16.05;6.60;;;4.00;66.40;;;;;;5048192;28;20029;-74
2022/02/26 01:40:08;;;;;;;11.73;6.30;;;4.00;66.40;;;;;;5051442;28;20134;-74
2022/02/26 01:42:34;;;;;;;11.90;5.90;;;3.90;66.50;;;;;;5042520;28;20032;-76
2022/02/26 01:45:01;;;;;;;12.88;6.63;;;3.90;66.80;;;;;;5061997;28;20421;-76
2022/02/26 01:47:27;;;;;;;11.20;5.60;;;3.90;66.70;;;;;;5052389;28;20463;-76
2022/02/26 01:49:53;;;;;;;12.60;6.93;;;3.90;66.80;;;;;;5052455;28;20115;-74
2022/02/26 01:52:21;;;;;;;10.35;5.63;;;3.90;66.60;;;;;;5049540;28;20039;-76
2022/02/26 01:54:47;;;;;;;12.18;6.55;;;3.90;66.70;;;;;;5053868;28;20458;-76
2022/02/26 01:57:14;;;;;;;13.90;7.07;;;3.90;66.40;;;;;;5051413;28;20035;-75
2022/02/26 01:59:40;;;;;;;11.35;6.28;;;3.90;66.50;;;;;;5050398;28;20071;-74
2022/02/26 02:02:07;;;;;;;14.23;7.25;;;3.90;65.90;;;;;;5050877;28;20048;-76
2022/02/26 02:04:33;;;;;;;17.67;9.55;;;3.90;66.00;;;;;;5051588;28;20047;-75
2022/02/26 02:06:59;;;;;;;29.30;15.23;;;3.90;65.80;;;;;;5050191;28;21019;-74
2022/02/26 02:09:26;;;;;;;19.67;10.38;;;4.00;66.50;;;;;;5049515;28;20075;-76
2022/02/26 02:11:52;;;;;;;15.13;8.57;;;4.00;66.50;;;;;;5050310;28;20037;-74
2022/02/26 02:14:18;;;;;;;;;;;4.00;66.20;;;;;;5054633;28;20033;-76
2022/02/26 02:16:45;;;;;;;14.50;6.82;;;4.00;65.80;;;;;;5050870;28;19916;-74
2022/02/26 02:19:11;;;;;;;11.68;6.63;;;4.00;66.00;;;;;;5050647;28;20103;-74
2022/02/26 02:21:38;;;;;;;13.65;6.22;;;4.00;65.90;;;;;;5058445;28;20404;-74
2022/02/26 02:24:06;;;;;;;12.35;5.93;;;4.00;66.00;;;;;;5057785;28;20150;-76
2022/02/26 02:26:34;;;;;;;11.40;5.85;;;4.00;66.20;;;;;;5050305;28;20041;-76
2022/02/26 02:29:02;;;;;;;11.68;6.25;;;3.90;66.50;;;;;;5051064;28;20139;-74
2022/02/26 02:31:30;;;;;;;12.20;5.38;;;3.90;66.50;;;;;;5064508;28;20485;-74
2022/02/26 02:33:56;;;;;;;11.98;5.35;;;3.90;66.40;;;;;;5056971;28;20409;-74
2022/02/26 02:36:25;;;;;;;;;;;3.90;65.90;;;;;;5078340;28;20043;-74
2022/02/26 02:38:51;;;;;;;9.80;5.70;;;3.90;66.30;;;;;;5050670;28;19932;-76
2022/02/26 02:41:17;;;;;;;10.60;5.95;;;3.90;66.20;;;;;;5032503;28;20052;-74
2022/02/26 02:43:43;;;;;;;;;;;4.00;65.90;;;;;;5068950;28;20504;-77
2022/02/26 02:46:09;;;;;;;12.60;5.82;;;4.10;65.80;;;;;;5052763;28;19920;-76
2022/02/26 02:48:37;;;;;;;11.20;5.82;;;4.10;65.60;;;;;;5050751;28;20028;-74
2022/02/26 02:51:05;;;;;;;10.82;5.32;;;4.00;65.60;;;;;;5065724;28;20029;-74
2022/02/26 02:53:32;;;;;;;11.13;5.78;;;4.00;65.40;;;;;;5050039;28;20054;-74
2022/02/26 02:55:58;;;;;;;12.65;6.68;;;4.00;65.90;;;;;;5049915;28;20031;-76
2022/02/26 02:58:29;;;;;;;12.50;6.03;;;4.00;65.30;;;;;;5067882;28;20063;-76
2022/02/26 03:00:58;;;;;;;13.48;6.28;;;4.10;66.00;;;;;;5048928;28;20040;-74
2022/02/26 03:03:25;;;;;;;14.13;6.90;;;4.00;65.90;;;;;;5050341;28;20041;-75
2022/02/26 03:05:53;;;;;;;17.27;6.97;;;4.00;66.10;;;;;;5044398;28;20041;-76
2022/02/26 03:08:23;;;;;;;19.27;6.93;;;4.00;65.90;;;;;;5050103;28;20029;-76
2022/02/26 03:10:51;;;;;;;17.77;8.35;;;4.00;66.20;;;;;;5049995;28;20036;-76
2022/02/26 03:13:20;;;;;;;14.57;6.65;;;4.10;66.00;;;;;;5060757;28;20041;-74
2022/02/26 03:15:48;;;;;;;20.40;8.02;;;4.00;66.00;;;;;;5054655;28;20037;-76
2022/02/26 03:18:14;;;;;;;19.92;9.57;;;4.10;66.10;;;;;;5060575;28;20382;-76
2022/02/26 03:20:40;;;;;;;20.25;8.63;;;4.10;66.20;;;;;;5066035;28;20061;-76
2022/02/26 03:23:06;;;;;;;14.27;6.95;;;4.10;66.20;;;;;;5058273;28;20040;-74
2022/02/26 03:25:32;;;;;;;21.58;8.10;;;4.00;66.40;;;;;;5051069;28;20033;-76
2022/02/26 03:27:58;;;;;;;24.40;9.20;;;4.00;66.30;;;;;;5051051;28;20045;-74
2022/02/26 03:30:24;;;;;;;21.45;8.25;;;4.00;66.40;;;;;;5051294;28;20529;-74
2022/02/26 03:32:50;;;;;;;21.85;8.18;;;4.00;66.30;;;;;;5051081;28;20029;-74
2022/02/26 03:35:17;;;;;;;28.85;9.20;;;4.00;66.30;;;;;;5051351;28;20040;-74
2022/02/26 03:37:44;;;;;;;19.08;8.02;;;4.00;66.40;;;;;;5051676;28;20033;-75
2022/02/26 03:40:13;;;;;;;17.42;6.75;;;4.00;65.70;;;;;;5050355;28;20040;-74
2022/02/26 03:42:39;;;;;;;18.55;7.90;;;4.00;66.30;;;;;;5048610;28;20043;-74
2022/02/26 03:45:07;;;;;;;31.35;9.60;;;4.00;66.30;;;;;;5043597;28;20037;-76
2022/02/26 03:47:34;;;;;;;36.13;10.20;;;4.00;66.00;;;;;;5066307;28;23587;-75
2022/02/26 03:50:00;;;;;;;26.10;10.30;;;3.90;66.30;;;;;;5049667;28;20037;-76
2022/02/26 03:52:26;;;;;;;;;;;3.90;66.20;;;;;;5049904;28;20049;-74
2022/02/26 03:54:52;;;;;;;30.70;10.38;;;3.90;66.00;;;;;;5067527;28;19920;-76
2022/02/26 03:57:18;;;;;;;;;;;3.90;66.00;;;;;;5049083;28;20060;-74
2022/02/26 03:59:48;;;;;;;30.30;11.77;;;3.90;65.90;;;;;;5049903;28;19921;-76
2022/02/26 04:02:14;;;;;;;34.95;13.38;;;3.90;65.80;;;;;;5049366;28;20048;-75
2022/02/26 04:04:40;;;;;;;30.60;11.57;;;3.90;66.00;;;;;;5048128;28;20409;-76
2022/02/26 04:07:06;;;;;;;;;;;4.00;66.00;;;;;;5064107;28;20037;-76
2022/02/26 04:09:52;;;;;;;72.97;15.25;;;3.90;65.20;;;;;;5054520;28;20008;-74
2022/02/26 04:12:19;;;;;;;33.35;10.98;;;3.90;66.10;;;;;;5042363;28;20044;-76
2022/02/26 04:14:45;;;;;;;32.47;10.88;;;3.90;66.20;;;;;;5060977;28;20398;-74
2022/02/26 04:17:11;;;;;;;30.80;9.45;;;3.90;66.30;;;;;;5067174;28;20085;-74
2022/02/26 04:19:37;;;;;;;51.25;8.82;;;3.90;66.40;;;;;;5060437;28;20037;-74
2022/02/26 04:22:04;;;;;;;66.97;14.23;;;3.90;66.50;;;;;;5055062;28;20037;-74
2022/02/26 04:24:30;;;;;;;79.50;18.73;;;3.80;65.80;;;;;;5053425;28;20490;-76
2022/02/26 04:26:56;;;;;;;68.60;16.65;;;3.80;66.60;;;;;;5053248;28;20040;-74
2022/02/26 04:29:22;;;;;;;68.97;16.13;;;3.80;66.70;;;;;;5042979;28;20032;-74
2022/02/26 04:31:49;;;;;;;57.13;14.43;;;3.70;66.80;;;;;;5064086;28;20037;-74
2022/02/26 04:34:15;;;;;;;58.60;13.13;;;3.80;66.80;;;;;;5053177;28;20323;-74
2022/02/26 04:36:41;;;;;;;;;;;3.70;66.40;;;;;;5053352;28;20087;-76
2022/02/26 04:39:08;;;;;;;52.97;9.45;;;3.70;66.80;;;;;;5052958;28;20208;-76
2022/02/26 04:41:35;;;;;;;43.65;13.90;;;3.70;66.80;;;;;;5053426;28;20102;-76
2022/02/26 04:44:01;;;;;;;71.05;11.95;;;3.80;66.80;;;;;;5071878;28;20036;-76
2022/02/26 04:46:27;;;;;;;92.38;21.52;;;3.70;66.90;;;;;;5054326;28;20452;-76
2022/02/26 04:48:53;;;;;;;68.47;13.88;;;3.70;67.10;;;;;;5049362;28;20048;-76
2022/02/26 04:51:19;;;;;;;64.45;16.10;;;3.70;67.30;;;;;;5053950;28;20521;-74
2022/02/26 04:53:45;;;;;;;44.22;12.82;;;3.70;67.50;;;;;;5054508;28;20104;-76
2022/02/26 04:56:11;;;;;;;30.05;10.52;;;3.70;67.30;;;;;;5052548;28;20037;-74
2022/02/26 04:58:38;;;;;;;19.23;9.25;;;3.70;67.30;;;;;;5066153;28;20547;-76
2022/02/26 05:01:05;;;;;;;23.35;10.10;;;3.60;67.20;;;;;;5052821;28;20032;-76
2022/02/26 05:03:31;;;;;;;26.88;12.73;;;3.60;67.20;;;;;;5059020;28;20036;-74
2022/02/26 05:05:58;;;;;;;22.70;10.95;;;3.60;66.60;;;;;;5052181;28;20041;-76
2022/02/26 05:08:24;;;;;;;21.50;9.68;;;3.50;67.40;;;;;;5053026;28;20033;-74
2022/02/26 05:10:52;;;;;;;27.30;7.70;;;3.50;66.70;;;;;;5053212;28;20034;-74
2022/02/26 05:13:18;;;;;;;20.10;8.10;;;3.50;67.40;;;;;;5044537;28;20048;-74
2022/02/26 05:15:44;;;;;;;17.73;7.68;;;3.50;67.40;;;;;;5063322;28;20124;-76
2022/02/26 05:18:10;;;;;;;17.15;7.50;;;3.50;67.40;;;;;;5051058;28;20113;-74
2022/02/26 05:20:37;;;;;;;21.83;6.95;;;3.40;67.10;;;;;;5054893;28;20020;-74
2022/02/26 05:23:03;;;;;;;15.80;6.72;;;3.40;67.50;;;;;;5066815;28;20041;-74
2022/02/26 05:25:29;;;;;;;18.77;7.25;;;3.30;67.70;;;;;;5054296;28;20477;-75
2022/02/26 05:27:55;;;;;;;19.60;7.45;;;3.30;67.60;;;;;;5053752;28;20115;-76
2022/02/26 05:30:21;;;;;;;15.32;7.43;;;3.40;67.40;;;;;;5051497;28;20045;-76
2022/02/26 05:32:47;;;;;;;21.48;7.47;;;3.40;67.20;;;;;;5051914;28;20064;-77
2022/02/26 05:35:14;;;;;;;18.88;7.18;;;3.40;67.00;;;;;;5067568;28;20041;-75
2022/02/26 05:37:40;;;;;;;43.58;8.43;;;3.40;67.00;;;;;;5050871;28;20094;-76
2022/02/26 05:40:06;;;;;;;;;;;3.40;66.30;;;;;;5053476;28;20056;-76
2022/02/26 05:42:33;;;;;;;42.03;9.60;;;3.40;66.60;;;;;;5051810;28;19920;-77
2022/02/26 05:45:00;;;;;;;33.75;8.98;;;3.40;66.80;;;;;;5049428;28;20053;-74
2022/02/26 05:47:26;;;;;;;31.15;8.38;;;3.40;66.40;;;;;;5053486;28;20029;-76
2022/02/26 05:49:52;;;;;;;35.75;8.45;;;3.30;67.00;;;;;;5051684;28;20136;-74
2022/02/26 05:52:18;;;;;;;32.53;7.95;;;3.30;67.30;;;;;;5052529;28;20313;-76
2022/02/26 05:54:45;;;;;;;51.70;9.68;;;3.30;67.40;;;;;;5051498;28;20037;-74
2022/02/26 05:57:11;;;;;;;60.85;9.35;;;3.20;67.40;;;;;;5051349;28;20445;-76
2022/02/26 05:59:37;;;;;;;83.70;9.43;;;3.20;67.50;;;;;;5048296;28;20116;-76
2022/02/26 06:02:04;;;;;;;74.00;9.32;;;3.20;67.60;;;;;;5051028;28;20397;-77
2022/02/26 06:04:30;;;;;;;65.50;9.32;;;3.10;67.20;;;;;;5051386;28;20053;-74
2022/02/26 06:06:56;;;;;;;42.35;7.20;;;3.20;67.70;;;;;;5051297;28;20048;-74
2022/02/26 06:09:22;;;;;;;72.20;10.40;;;3.20;67.60;;;;;;5051378;28;20048;-74
2022/02/26 06:11:48;;;;;;;57.97;12.75;;;3.30;67.50;;;;;;5051580;28;20436;-77
2022/02/26 06:14:14;;;;;;;40.25;9.93;;;3.30;67.50;;;;;;5052482;28;20485;-74
2022/02/26 06:16:40;;;;;;;33.22;7.78;;;3.20;67.40;;;;;;5034304;28;20033;-75
2022/02/26 06:19:06;;;;;;;37.53;8.52;;;3.20;67.40;;;;;;5050200;28;20040;-77
2022/02/26 06:21:32;;;;;;;38.58;7.10;;;3.20;67.50;;;;;;5068181;28;20051;-76
2022/02/26 06:23:58;;;;;;;59.67;9.18;;;3.20;67.50;;;;;;5051271;28;20128;-76
2022/02/26 06:26:25;;;;;;;27.85;7.57;;;3.20;67.60;;;;;;5052040;28;20033;-74
2022/02/26 06:28:51;;;;;;;34.15;8.57;;;3.20;67.60;;;;;;5047498;28;20040;-74
2022/02/26 06:31:18;;;;;;;64.32;7.45;;;3.30;67.40;;;;;;5049519;28;20052;-77
2022/02/26 06:33:44;;;;;;;61.05;8.40;;;3.30;67.40;;;;;;5053362;28;20041;-78
2022/02/26 06:36:10;;;;;;;73.28;9.15;;;3.30;67.20;;;;;;5052321;28;20032;-76
2022/02/26 06:38:36;;;;;;;79.63;8.05;;;3.40;67.10;;;;;;5047367;28;20085;-74
2022/02/26 06:41:03;;;;;;;84.20;9.38;;;3.30;67.40;;;;;;5051397;28;20482;-74
2022/02/26 06:43:29;;;;;;;73.47;9.45;;;3.30;67.50;;;;;;5049744;28;20037;-77
2022/02/26 06:45:55;;;;;;;48.72;9.15;;;3.40;67.40;;;;;;5051655;28;20037;-77
2022/02/26 06:48:24;;;;;;;55.05;8.05;;;3.40;67.40;;;;;;5050747;28;20106;-75
2022/02/26 06:50:50;;;;;;;44.47;7.95;;;3.40;67.10;;;;;;5042384;28;20533;-77
2022/02/26 06:53:16;;;;;;;48.00;9.10;;;3.50;67.10;;;;;;5061069;28;20398;-77
2022/02/26 06:55:42;;;;;;;86.90;9.00;;;3.60;66.90;;;;;;5063083;28;20112;-77
2022/02/26 06:58:08;;;;;;;101.28;9.05;;;3.70;66.80;;;;;;5046664;28;20029;-74
2022/02/26 07:00:34;;;;;;;;;;;3.70;66.60;;;;;;5050561;28;20044;-74
2022/02/26 07:03:00;;;;;;;71.93;9.20;;;3.70;66.50;;;;;;5050597;28;19912;-74
2022/02/26 07:05:27;;;;;;;59.85;7.60;;;3.80;66.40;;;;;;5050687;28;20128;-74
2022/02/26 07:07:53;;;;;;;40.50;8.55;;;3.80;66.20;;;;;;5052613;28;20093;-76
2022/02/26 07:10:19;;;;;;;40.75;9.10;;;3.90;66.20;;;;;;5051609;28;20389;-76
2022/02/26 07:12:45;;;;;;;65.55;10.48;;;4.00;66.00;;;;;;5050504;28;20029;-74
2022/02/26 07:15:11;;;;;;;51.63;11.35;;;4.00;66.00;;;;;;5050414;28;20033;-75
2022/02/26 07:17:38;;;;;;;76.25;11.90;;;4.00;66.40;;;;;;5053196;28;20451;-76
2022/02/26 07:20:05;;;;;;;34.63;10.98;;;4.00;66.10;;;;;;5032151;28;20068;-74
2022/02/26 07:22:31;;;;;;;37.53;12.60;;;4.10;66.20;;;;;;5050953;28;20045;-75
2022/02/26 07:24:57;;;;;;;35.08;14.60;;;4.20;66.10;;;;;;5052827;28;20489;-76
2022/02/26 07:27:23;;;;;;;40.88;19.00;;;4.20;66.00;;;;;;5052421;28;20033;-76
2022/02/26 07:29:49;;;;;;;53.92;21.50;;;4.30;66.20;;;;;;5061615;28;20062;-74
2022/02/26 07:32:15;;;;;;;50.92;23.92;;;4.40;66.00;;;;;;5057405;28;20076;-74
2022/02/26 07:34:41;;;;;;;53.38;25.92;;;4.40;65.80;;;;;;5051457;28;20044;-74
2022/02/26 07:37:07;;;;;;;64.32;28.83;;;4.50;65.60;;;;;;5042198;28;20078;-76
2022/02/26 07:39:33;;;;;;;58.15;27.38;;;4.60;65.50;;;;;;5062782;28;20087;-77
2022/02/26 07:41:59;;;;;;;52.00;24.55;;;4.80;65.40;;;;;;5051946;28;20037;-74
2022/02/26 07:44:25;;;;;;;45.70;20.83;;;4.80;65.10;;;;;;5054739;28;20112;-74
2022/02/26 07:46:52;;;;;;;41.80;19.80;;;4.80;65.20;;;;;;5041706;28;20513;-77
2022/02/26 07:49:18;;;;;;;44.50;23.13;;;4.90;65.10;;;;;;5069149;28;20024;-74
2022/02/26 07:51:44;;;;;;;35.30;17.90;;;5.00;64.80;;;;;;5052875;28;20453;-76
2022/02/26 07:54:10;;;;;;;37.25;20.13;;;5.10;64.80;;;;;;5055640;28;20410;-74
2022/02/26 07:56:36;;;;;;;35.58;18.25;;;5.20;64.60;;;;;;5037828;28;20048;-74
2022/02/26 07:59:02;;;;;;;50.47;20.30;;;5.30;64.70;;;;;;5054683;28;20029;-77
2022/02/26 08:01:28;;;;;;;47.53;17.35;;;5.40;64.40;;;;;;5053539;28;20041;-74
2022/02/26 08:03:54;;;;;;;38.67;17.73;;;5.50;64.20;;;;;;5053198;28;20034;-76
2022/02/26 08:06:21;;;;;;;35.40;15.20;;;5.60;63.90;;;;;;5015070;28;20041;-74
2022/02/26 08:08:47;;;;;;;30.13;19.77;;;5.70;63.70;;;;;;5028874;28;20029;-74
2022/02/26 08:11:13;;;;;;;35.65;23.25;;;5.80;63.40;;;;;;5018793;28;20072;-76
2022/02/26 08:13:39;;;;;;;37.63;21.88;;;5.90;63.20;;;;;;4997260;28;20042;-77
2022/02/26 08:16:08;;;;;;;27.60;16.95;;;6.10;64.00;;;;;;5014392;28;20125;-77
2022/02/26 08:18:35;;;;;;;100.88;46.60;;;6.20;62.90;;;;;;5009763;28;20060;-76
2022/02/26 08:21:02;;;;;;;54.33;32.83;;;6.30;62.60;;;;;;5028280;28;20075;-76
2022/02/26 08:23:28;;;;;;;50.08;26.98;;;6.40;62.70;;;;;;5021644;28;20030;-74
2022/02/26 08:25:54;;;;;;;95.25;38.92;;;6.50;62.60;;;;;;5004272;28;20046;-74
2022/02/26 08:28:20;;;;;;;40.10;19.17;;;6.60;62.40;;;;;;5006607;28;20041;-76
2022/02/26 08:30:46;;;;;;;45.97;24.20;;;6.70;62.30;;;;;;5009052;28;20053;-76
2022/02/26 08:33:13;;;;;;;36.72;22.88;;;6.90;62.00;;;;;;5014773;28;20487;-77
2022/02/26 08:35:39;;;;;;;28.25;13.30;;;7.00;61.90;;;;;;5013164;28;20028;-77
2022/02/26 08:38:05;;;;;;;20.63;11.75;;;7.20;61.60;;;;;;5014463;28;20037;-77
2022/02/26 08:40:31;;;;;;;18.27;10.77;;;7.40;61.30;;;;;;5012967;28;20033;-74
2022/02/26 08:42:57;;;;;;;18.35;9.68;;;7.70;60.20;;;;;;4996921;28;20443;-77
2022/02/26 08:45:24;;;;;;;20.73;11.70;;;8.10;60.30;;;;;;5011835;28;20422;-74
2022/02/26 08:47:50;;;;;;;20.45;11.77;;;8.40;59.60;;;;;;5014957;28;20049;-77
2022/02/26 08:50:19;;;;;;;23.98;12.90;;;8.90;59.00;;;;;;5012418;28;20038;-74
2022/02/26 08:52:46;;;;;;;26.80;14.52;;;9.30;58.20;;;;;;5014424;28;20132;-76
2022/02/26 08:55:12;;;;;;;;;;;9.60;57.60;;;;;;5012632;28;20057;-74
2022/02/26 08:57:38;;;;;;;106.40;42.78;;;10.00;57.90;;;;;;5012622;28;19922;-74
2022/02/26 09:00:07;;;;;;;36.53;17.20;;;10.30;56.30;;;;;;5010076;28;20064;-77
2022/02/26 09:02:34;;;;;;;35.95;14.98;;;10.50;55.40;;;;;;5017403;28;20518;-74
2022/02/26 09:05:00;;;;;;;22.08;10.70;;;10.70;55.40;;;;;;5031546;28;20508;-77
2022/02/26 09:07:27;;;;;;;68.50;28.35;;;10.90;55.10;;;;;;5056950;28;20082;-77
2022/02/26 09:09:54;;;;;;;15.20;8.75;;;11.00;54.80;;;;;;5052251;28;20045;-76
2022/02/26 09:12:21;;;;;;;18.88;9.70;;;11.20;54.50;;;;;;5040325;28;20045;-77
2022/02/26 09:14:47;;;;;;;40.75;21.67;;;11.20;54.50;;;;;;5058572;28;20074;-77
2022/02/26 09:17:13;;;;;;;17.75;10.60;;;11.40;54.30;;;;;;5066439;28;20128;-77
2022/02/26 09:19:39;;;;;;;20.48;10.77;;;11.40;53.80;;;;;;5052449;28;20044;-74
2022/02/26 09:22:06;;;;;;;20.33;10.57;;;11.50;53.90;;;;;;5057238;28;20351;-77
2022/02/26 09:24:33;;;;;;;;;;;11.30;53.80;;;;;;5041079;28;20378;-74
2022/02/26 09:26:59;;;;;;;19.33;10.73;;;11.20;54.90;;;;;;5066685;28;19925;-74
2022/02/26 09:29:26;;;;;;;18.63;8.35;;;11.10;54.20;;;;;;5052891;28;20066;-78
2022/02/26 09:31:53;;;;;;;20.33;8.20;;;10.90;53.70;;;;;;5052877;28;20037;-76
2022/02/26 09:34:21;;;;;;;15.48;5.95;;;10.80;52.90;;;;;;5052503;28;20103;-74
2022/02/26 09:36:50;;;;;;;11.48;5.07;;;10.80;52.70;;;;;;5067926;28;20036;-75
2022/02/26 09:39:18;;;;;;;11.10;4.35;;;10.80;51.90;;;;;;5051680;28;20134;-75
2022/02/26 09:41:46;;;;;;;8.73;3.55;;;10.70;51.40;;;;;;5051559;28;20043;-77
2022/02/26 09:44:14;;;;;;;7.80;3.85;;;10.60;50.60;;;;;;5051780;28;20037;-77
2022/02/26 09:46:40;;;;;;;8.45;3.50;;;10.50;50.10;;;;;;5050417;28;20124;-74
2022/02/26 09:49:06;;;;;;;11.32;4.20;;;10.60;50.70;;;;;;5068703;28;20041;-75
2022/02/26 09:51:34;;;;;;;9.98;4.53;;;10.60;49.80;;;;;;5053390;28;20120;-78
2022/02/26 09:54:00;;;;;;;8.23;3.20;;;10.60;49.30;;;;;;5054253;28;20447;-75
2022/02/26 09:56:26;;;;;;;7.57;3.78;;;10.60;49.00;;;;;;5044445;28;20419;-76
2022/02/26 09:58:53;;;;;;;11.35;4.38;;;10.70;48.50;;;;;;5057481;28;20044;-75
2022/02/26 10:01:19;;;;;;;7.88;3.50;;;10.70;47.90;;;;;;5061594;28;20047;-77
2022/02/26 10:03:45;;;;;;;;;;;10.90;47.90;;;;;;5060169;28;20405;-78
2022/02/26 10:06:30;;;;;;;9.23;2.95;;;10.90;48.00;;;;;;5051007;28;20007;-75
2022/02/26 10:08:57;;;;;;;7.80;3.22;;;10.70;46.00;;;;;;5046156;28;20248;-78
2022/02/26 10:11:42;;;;;;;7.85;2.55;;;10.60;45.30;;;;;;5069284;28;20564;-75
2022/02/26 10:14:27;;;;;;;10.00;3.47;;;10.50;45.00;;;;;;5068114;28;20424;-75
2022/02/26 10:17:12;;;;;;;8.40;3.75;;;10.60;45.70;;;;;;5055421;28;20496;-75
2022/02/26 10:19:39;;;;;;;6.88;2.50;;;10.60;45.10;;;;;;5050143;28;20048;-75
2022/02/26 10:22:08;;;;;;;10.43;3.92;;;10.60;45.00;;;;;;5051901;28;20103;-78
2022/02/26 10:24:37;;;;;;;6.85;3.22;;;10.70;44.70;;;;;;5049848;28;20037;-76
2022/02/26 10:27:09;;;;;;;7.60;2.42;;;10.90;44.60;;;;;;5052155;28;20104;-75
2022/02/26 10:29:37;;;;;;;6.80;2.15;;;10.90;43.60;;;;;;5064368;28;20563;-80
2022/02/26 10:32:05;;;;;;;13.38;4.82;;;11.00;43.90;;;;;;5045862;28;20070;-79
2022/02/26 10:34:53;;;;;;;7.05;2.17;;;11.10;43.30;;;;;;5051756;28;20037;-80
2022/02/26 10:37:22;;;;;;;10.32;3.65;;;11.30;42.30;;;;;;5066200;28;20036;-81
2022/02/26 10:40:08;;;;;;;6.57;2.42;;;11.30;41.70;;;;;;5068590;28;20059;-80
2022/02/26 10:42:36;;;;;;;5.40;1.83;;;11.40;41.40;;;;;;5053526;28;20037;-75
2022/02/26 10:45:22;;;;;;;13.77;1.70;;;11.50;41.20;;;;;;5051003;28;20082;-75
2022/02/26 10:47:49;;;;;;;10.68;1.85;;;11.50;41.20;;;;;;5051726;28;20025;-76
2022/02/26 10:50:34;;;;;;;5.53;1.73;;;11.60;40.80;;;;;;5050506;28;20041;-80
2022/02/26 10:53:20;;;;;;;4.63;1.55;;;11.60;39.70;;;;;;5052306;28;20041;-80
2022/02/26 10:56:05;;;;;;;7.03;2.65;;;11.30;40.00;;;;;;5050687;28;20041;-77
2022/02/26 10:58:31;;;;;;;14.48;3.85;;;11.10;40.80;;;;;;5057436;28;20082;-75
2022/02/26 11:01:16;;;;;;;6.43;2.45;;;11.30;40.30;;;;;;5035583;28;20037;-75
2022/02/26 11:03:43;;;;;;;9.35;2.15;;;11.60;39.50;;;;;;5050533;28;21062;-75
2022/02/26 11:06:12;;;;;;;7.63;2.45;;;11.90;39.10;;;;;;5067882;28;20076;-80
2022/02/26 11:08:42;;;;;;;8.80;3.40;;;11.80;39.00;;;;;;5068667;28;20033;-80
2022/02/26 11:11:09;;;;;;;8.82;2.40;;;11.40;39.30;;;;;;5035317;28;20041;-75
2022/02/26 11:13:37;;;;;;;5.60;2.08;;;11.20;39.60;;;;;;5050661;28;20513;-79
2022/02/26 11:16:06;;;;;;;8.52;2.60;;;11.00;39.80;;;;;;5064729;28;20036;-79
2022/02/26 11:19:10;;;;;;;11.98;2.97;;;10.90;39.90;;;;;;5054365;28;20389;-75
2022/02/26 11:21:37;;;;;;;9.18;2.90;;;11.10;40.20;;;;;;5058245;28;20114;-75
2022/02/26 11:24:04;;;;;;;7.70;2.42;;;11.30;39.20;;;;;;5050518;28;20482;-74
2022/02/26 11:26:31;;;;;;;6.05;2.63;;;11.30;39.00;;;;;;5050779;28;20115;-76
2022/02/26 11:29:02;;;;;;;7.18;2.47;;;11.30;38.90;;;;;;5048409;28;20441;-80
2022/02/26 11:31:36;;;;;;;9.18;2.78;;;11.70;38.50;;;;;;5067562;28;20086;-76
2022/02/26 11:34:03;;;;;;;7.38;2.85;;;12.30;37.90;;;;;;5052389;28;20518;-74
2022/02/26 11:37:01;;;;;;;6.32;2.20;;;12.60;37.20;;;;;;5051049;28;20435;-79
2022/02/26 11:39:40;;;;;;;6.70;2.42;;;12.50;37.20;;;;;;5066838;28;20499;-76
2022/02/26 11:42:22;;;;;;;7.53;2.60;;;12.30;37.20;;;;;;5066982;28;20438;-79
2022/02/26 11:45:32;;;;;;;7.60;3.30;;;12.10;37.20;;;;;;5052574;28;20032;-75
2022/02/26 11:48:17;;;;;;;8.23;2.97;;;12.20;37.60;;;;;;5013855;28;20462;-75
2022/02/26 11:50:43;;;;;;;7.95;2.63;;;12.20;37.00;;;;;;5012365;28;20029;-75
2022/02/26 11:54:00;;;;;;;6.75;3.03;;;12.10;37.10;;;;;;5043722;28;20063;-75
2022/02/26 11:56:46;;;;;;;7.95;3.53;;;12.20;36.80;;;;;;5052110;28;20029;-75
2022/02/26 11:59:12;;;;;;;9.38;3.40;;;12.20;36.40;;;;;;5046905;28;20037;-79
2022/02/26 12:02:17;;;;;;;6.60;2.38;;;12.20;36.20;;;;;;5049490;28;20497;-79
2022/02/26 12:05:01;;;;;;;6.80;2.40;;;12.30;36.60;;;;;;5050936;28;20144;-80
2022/02/26 12:07:48;;;;;;;7.05;1.90;;;12.30;36.10;;;;;;5047647;28;20041;-79
2022/02/26 12:10:15;;;;;;;7.38;2.97;;;12.20;35.90;;;;;;5052023;28;20446;-76
2022/02/26 12:12:46;;;;;;;11.45;3.50;;;12.00;35.70;;;;;;5048888;28;20040;-79
2022/02/26 12:15:33;;;;;;;8.38;3.42;;;11.70;36.00;;;;;;5049341;28;20033;-79
2022/02/26 12:18:55;;;;;;;6.60;3.13;;;11.70;36.40;;;;;;5049959;28;20467;-79
2022/02/26 12:21:22;;;;;;;9.23;3.15;;;11.50;36.50;;;;;;5055285;28;20360;-78
2022/02/26 12:24:28;;;;;;;6.82;2.83;;;11.50;37.20;;;;;;5033818;28;20036;-76
2022/02/26 12:27:10;;;;;;;7.07;2.88;;;11.20;37.20;;;;;;5050275;28;20032;-79
2022/02/26 12:29:39;;;;;;;7.10;2.83;;;10.90;37.60;;;;;;5041624;28;20101;-78
2022/02/26 12:32:17;;;;;;;6.32;3.20;;;10.60;38.10;;;;;;5070565;28;20035;-75
2022/02/26 12:35:23;;;;;;;6.18;2.00;;;10.40;38.40;;;;;;5070730;28;20033;-79
2022/02/26 12:37:50;;;;;;;6.65;1.98;;;10.20;38.50;;;;;;5054013;28;20044;-78
2022/02/26 12:40:35;;;;;;;6.10;1.95;;;9.90;38.40;;;;;;5060759;28;20072;-75
2022/02/26 12:43:06;;;;;;;7.88;2.40;;;9.80;39.30;;;;;;5054779;28;20048;-75
2022/02/26 12:45:51;;;;;;;7.55;2.80;;;9.70;39.10;;;;;;5052681;28;20163;-75
2022/02/26 12:48:17;;;;;;;10.43;3.00;;;9.60;39.40;;;;;;5051920;28;20047;-78
2022/02/26 12:50:44;;;;;;;8.65;2.60;;;9.60;39.40;;;;;;5058403;28;20025;-78
2022/02/26 12:53:10;;;;;;;8.50;3.88;;;9.60;39.80;;;;;;5060015;28;20044;-77
2022/02/26 12:55:37;;;;;;;9.43;3.90;;;9.60;39.80;;;;;;5041262;28;20044;-75
2022/02/26 12:58:03;;;;;;;7.32;3.40;;;9.70;40.10;;;;;;5054113;28;20041;-78
2022/02/26 13:00:33;;;;;;;6.88;3.30;;;9.80;39.90;;;;;;5036886;28;20037;-74